createdAt,value
2019-04-20T00:00:56.172Z,6.08
2019-04-20T00:03:32.199Z,6.20
2019-04-20T00:05:55.186Z,5.90
2019-04-20T00:08:27.932Z,6.70
2019-04-20T00:11:02.660Z,6.12
2019-04-20T00:13:36.658Z,5.47
2019-04-20T00:15:55.789Z,6.55
2019-04-20T00:18:26.792Z,7.37
2019-04-20T00:21:00.328Z,5.55
2019-04-20T00:23:34.283Z,5.65
2019-04-20T00:26:16.187Z,6.08
2019-04-20T00:28:55.819Z,5.87
2019-04-20T00:31:23.530Z,5.80
2019-04-20T00:33:48.226Z,6.17
2019-04-20T00:36:07.252Z,6.10
2019-04-20T00:38:42.593Z,5.78
2019-04-20T00:41:10.125Z,6.50
2019-04-20T00:43:39.129Z,5.78
2019-04-20T00:46:18.397Z,6.30
2019-04-20T00:48:48.472Z,6.22
2019-04-20T00:51:24.099Z,6.30
2019-04-20T00:53:43.243Z,6.50
2019-04-20T00:56:08.024Z,7.57
2019-04-20T00:58:50.662Z,6.35
2019-04-20T01:01:29.139Z,6.50
2019-04-20T01:03:52.516Z,6.72
2019-04-20T01:06:41.225Z,6.37
2019-04-20T01:09:18.217Z,6.58
2019-04-20T01:11:48.599Z,7.47
2019-04-20T01:14:22.372Z,7.35
2019-04-20T01:16:54.920Z,7.25
2019-04-20T01:19:19.329Z,6.87
2019-04-20T01:21:54.849Z,7.50
2019-04-20T01:24:23.897Z,6.85
2019-04-20T01:26:53.363Z,7.85
2019-04-20T01:29:29.207Z,7.37
2019-04-20T01:32:00.728Z,7.83
2019-04-20T01:34:32.246Z,7.72
2019-04-20T01:37:05.655Z,9.25
2019-04-20T01:39:28.708Z,8.18
2019-04-20T01:41:49.648Z,9.25
2019-04-20T01:44:27.712Z,8.00
2019-04-20T01:46:54.834Z,8.03
2019-04-20T01:49:23.842Z,7.60
2019-04-20T01:51:57.513Z,8.10
2019-04-20T01:54:38.656Z,7.62
2019-04-20T01:56:59.640Z,7.35
2019-04-20T01:59:34.823Z,7.55
2019-04-20T02:02:11.648Z,8.48
2019-04-20T02:04:45.950Z,8.18
2019-04-20T02:07:12.010Z,7.58
2019-04-20T02:09:47.495Z,8.45
2019-04-20T02:12:18.511Z,8.25
2019-04-20T02:14:46.282Z,8.05
2019-04-20T02:17:22.754Z,8.43
2019-04-20T02:20:05.535Z,8.30
2019-04-20T02:22:30.263Z,8.78
2019-04-20T02:24:42.694Z,9.15
2019-04-20T02:27:12.292Z,9.00
2019-04-20T02:30:06.456Z,9.53
2019-04-20T02:33:07.022Z,10.05
2019-04-20T02:35:34.613Z,9.65
2019-04-20T02:40:45.040Z,9.43
2019-04-20T02:43:09.457Z,9.38
2019-04-20T02:48:01.259Z,9.85
2019-04-20T02:53:17.020Z,9.80
2019-04-20T02:55:31.384Z,9.28
2019-04-20T02:58:00.689Z,10.98
2019-04-20T03:02:46.056Z,10.23
2019-04-20T03:05:16.184Z,11.35
2019-04-20T03:07:55.645Z,11.07
2019-04-20T03:10:26.622Z,10.28
2019-04-20T03:12:55.122Z,8.80
2019-04-20T03:15:27.560Z,10.13
2019-04-20T03:17:59.664Z,9.73
2019-04-20T03:20:31.409Z,11.73
2019-04-20T03:25:53.341Z,11.08
2019-04-20T03:28:18.340Z,10.58
2019-04-20T03:31:25.068Z,10.88
2019-04-20T03:33:44.537Z,10.03
2019-04-20T03:35:58.596Z,9.78
2019-04-20T03:38:21.436Z,10.40
2019-04-20T03:40:45.202Z,12.07
2019-04-20T03:43:02.647Z,12.80
2019-04-20T03:45:41.047Z,9.98
2019-04-20T03:48:14.330Z,12.00
2019-04-20T03:50:50.441Z,12.15
2019-04-20T03:53:23.020Z,8.85
2019-04-20T03:55:56.677Z,9.43
2019-04-20T03:58:33.429Z,9.10
2019-04-20T04:01:03.917Z,8.90
2019-04-20T04:03:47.309Z,9.28
2019-04-20T04:06:07.726Z,9.25
2019-04-20T04:08:32.634Z,10.03
2019-04-20T04:11:12.301Z,10.40
2019-04-20T04:13:25.053Z,9.48
2019-04-20T04:15:59.323Z,10.82
2019-04-20T04:18:30.121Z,9.25
2019-04-20T04:21:02.968Z,9.95
2019-04-20T04:23:40.450Z,10.32
2019-04-20T04:26:15.029Z,9.33
2019-04-20T04:28:40.714Z,10.85
2019-04-20T04:31:14.393Z,10.70
2019-04-20T04:33:56.920Z,11.25
2019-04-20T04:36:10.425Z,10.35
2019-04-20T04:38:48.747Z,13.50
2019-04-20T04:41:20.259Z,10.90
2019-04-20T04:43:48.345Z,10.80
2019-04-20T04:45:57.346Z,11.12
2019-04-20T04:48:32.104Z,11.25
2019-04-20T04:51:03.827Z,10.15
2019-04-20T04:53:40.830Z,9.93
2019-04-20T04:56:03.988Z,10.13
2019-04-20T04:58:27.765Z,10.58
2019-04-20T05:01:03.929Z,10.32
2019-04-20T05:03:49.230Z,9.38
2019-04-20T05:06:19.728Z,12.23
2019-04-20T05:08:36.834Z,9.33
2019-04-20T05:11:00.745Z,9.33
2019-04-20T05:13:36.825Z,9.30
2019-04-20T05:16:14.753Z,10.65
2019-04-20T05:18:55.444Z,10.58
2019-04-20T05:21:20.729Z,9.25
2019-04-20T05:23:45.785Z,10.60
2019-04-20T05:26:39.837Z,10.93
2019-04-20T05:28:59.086Z,10.53
2019-04-20T05:31:25.589Z,9.43
2019-04-20T05:34:15.035Z,9.10
2019-04-20T05:36:41.602Z,10.15
2019-04-20T05:41:42.927Z,10.25
2019-04-20T05:44:11.274Z,10.58
2019-04-20T05:46:42.505Z,9.08
2019-04-20T05:49:20.626Z,7.00
2019-04-20T05:51:44.386Z,6.50
2019-04-20T05:54:16.459Z,6.35
2019-04-20T05:56:55.181Z,6.28
2019-04-20T05:59:11.513Z,5.80
2019-04-20T06:01:52.770Z,5.50
2019-04-20T06:04:18.587Z,5.62
2019-04-20T06:06:52.020Z,5.35
2019-04-20T06:09:16.635Z,5.40
2019-04-20T06:12:01.424Z,5.87
2019-04-20T06:14:07.960Z,5.67
2019-04-20T06:16:52.688Z,6.58
2019-04-20T06:19:25.840Z,6.28
2019-04-20T06:21:57.405Z,7.05
2019-04-20T06:24:37.533Z,5.28
2019-04-20T06:27:03.232Z,5.40
2019-04-20T06:29:31.041Z,4.97
2019-04-20T06:32:05.081Z,5.58
2019-04-20T06:37:04.160Z,4.35
2019-04-20T06:39:42.609Z,4.37
2019-04-20T06:52:24.322Z,4.30
2019-04-20T06:54:48.276Z,4.97
2019-04-20T06:57:21.406Z,4.58
2019-04-20T06:59:45.857Z,4.80
2019-04-20T07:02:21.904Z,4.40
2019-04-20T07:04:57.617Z,5.08
2019-04-20T07:07:36.271Z,4.92
2019-04-20T07:10:02.262Z,4.83
2019-04-20T07:12:18.643Z,5.37
2019-04-20T07:14:42.679Z,5.15
2019-04-20T07:17:40.005Z,5.50
2019-04-20T07:19:58.144Z,6.55
2019-04-20T07:25:02.164Z,5.37
2019-04-20T07:27:29.553Z,8.28
2019-04-20T07:30:03.800Z,7.12
2019-04-20T07:32:23.464Z,7.05
2019-04-20T07:35:03.596Z,6.58
2019-04-20T07:40:15.146Z,6.67
2019-04-20T07:42:46.994Z,8.35
2019-04-20T07:45:21.888Z,6.92
2019-04-20T07:47:46.512Z,7.10
2019-04-20T07:50:07.734Z,7.50
2019-04-20T07:52:34.001Z,6.85
2019-04-20T07:57:37.691Z,6.97
2019-04-20T08:00:14.863Z,7.20
2019-04-20T08:03:08.922Z,6.85
2019-04-20T08:05:31.220Z,6.62
2019-04-20T08:07:57.286Z,7.08
2019-04-20T08:10:34.332Z,7.08
2019-04-20T08:13:16.190Z,6.62
2019-04-20T08:18:06.432Z,6.42
2019-04-20T08:20:41.676Z,6.60
2019-04-20T08:23:14.996Z,7.05
2019-04-20T08:25:32.724Z,7.00
2019-04-20T08:28:06.379Z,6.53
2019-04-20T08:31:09.094Z,6.35
2019-04-20T08:34:04.722Z,7.87
2019-04-20T08:36:28.280Z,7.95
2019-04-20T08:41:20.674Z,11.53
2019-04-20T08:44:32.375Z,7.17
2019-04-20T08:46:30.929Z,7.58
2019-04-20T08:48:55.790Z,6.60
2019-04-20T08:51:25.989Z,6.80
2019-04-20T08:53:51.763Z,6.78
2019-04-20T08:56:19.705Z,10.87
2019-04-20T08:58:36.223Z,6.65
2019-04-20T09:01:08.667Z,7.40
2019-04-20T09:03:46.212Z,7.00
2019-04-20T09:06:20.386Z,6.80
2019-04-20T09:08:46.521Z,6.97
2019-04-20T09:11:23.245Z,7.60
2019-04-20T09:13:45.503Z,7.03
2019-04-20T09:16:07.002Z,6.70
2019-04-20T09:18:47.633Z,6.72
2019-04-20T09:21:19.989Z,6.70
2019-04-20T09:23:52.178Z,6.45
2019-04-20T09:26:29.767Z,6.63
2019-04-20T09:28:55.898Z,6.80
2019-04-20T09:31:33.159Z,7.10
2019-04-20T09:34:14.439Z,6.15
2019-04-20T09:36:49.279Z,6.55
2019-04-20T09:39:37.816Z,6.67
2019-04-20T09:42:03.039Z,6.60
2019-04-20T09:44:39.804Z,5.78
2019-04-20T09:47:04.668Z,6.17
2019-04-20T09:49:42.603Z,4.53
2019-04-20T09:52:17.270Z,4.85
2019-04-20T09:54:53.023Z,5.67
2019-04-20T09:57:21.847Z,6.45
2019-04-20T09:59:49.735Z,5.53
2019-04-20T10:02:10.249Z,5.33
2019-04-20T10:04:33.511Z,5.58
2019-04-20T10:07:06.696Z,5.72
2019-04-20T10:09:37.607Z,5.28
2019-04-20T10:12:03.764Z,6.50
2019-04-20T10:14:33.104Z,5.72
2019-04-20T10:17:02.169Z,5.97
2019-04-20T10:19:33.986Z,5.20
2019-04-20T10:22:00.905Z,4.80
2019-04-20T10:24:30.537Z,6.53
2019-04-20T10:26:59.254Z,4.20
2019-04-20T10:29:28.954Z,4.40
2019-04-20T10:32:00.196Z,4.28
2019-04-20T10:34:28.458Z,4.00
2019-04-20T10:36:59.651Z,4.95
2019-04-20T10:39:30.780Z,4.78
2019-04-20T10:42:02.215Z,5.83
2019-04-20T10:44:29.474Z,4.17
2019-04-20T10:46:58.819Z,4.85
2019-04-20T10:49:27.319Z,5.67
2019-04-20T10:51:55.826Z,4.28
2019-04-20T10:54:24.649Z,4.00
2019-04-20T10:56:53.555Z,5.00
2019-04-20T10:59:21.988Z,3.65
2019-04-20T11:01:51.696Z,4.65
2019-04-20T11:04:20.884Z,5.42
2019-04-20T11:06:50.359Z,4.03
2019-04-20T11:09:18.854Z,3.70
2019-04-20T11:11:48.262Z,3.40
2019-04-20T11:14:25.768Z,4.12
2019-04-20T11:16:46.980Z,3.80
2019-04-20T11:19:15.689Z,4.42
2019-04-20T11:21:44.528Z,4.25
2019-04-20T11:24:14.235Z,4.30
2019-04-20T11:26:43.896Z,4.35
2019-04-20T11:29:13.821Z,3.70
2019-04-20T11:31:48.825Z,4.28
2019-04-20T11:34:14.971Z,3.47
2019-04-20T11:36:43.383Z,4.65
2019-04-20T11:39:12.827Z,3.12
2019-04-20T11:41:41.531Z,3.60
2019-04-20T11:44:11.589Z,7.15
2019-04-20T11:46:40.723Z,3.55
2019-04-20T11:49:09.800Z,4.50
2019-04-20T11:51:39.448Z,2.90
2019-04-20T11:54:08.354Z,3.55
2019-04-20T11:56:40.778Z,5.20
2019-04-20T11:59:07.455Z,15.55
2019-04-20T12:01:47.644Z,5.53
2019-04-20T12:04:28.456Z,8.63
2019-04-20T12:09:12.886Z,3.30
2019-04-20T12:11:56.357Z,3.02
2019-04-20T12:14:12.598Z,3.50
2019-04-20T12:16:41.689Z,3.60
2019-04-20T12:19:10.595Z,3.70
2019-04-20T12:21:39.234Z,3.30
2019-04-20T12:24:07.978Z,3.40
2019-04-20T12:26:36.563Z,3.50
2019-04-20T12:29:05.714Z,4.00
2019-04-20T12:31:35.556Z,3.05
2019-04-20T12:34:04.426Z,4.80
2019-04-20T12:36:33.264Z,3.22
2019-04-20T12:39:03.296Z,3.42
2019-04-20T12:41:39.776Z,4.65
2019-04-20T12:44:02.077Z,3.30
2019-04-20T12:46:31.837Z,3.98
2019-04-20T12:49:01.756Z,3.45
2019-04-20T12:51:33.812Z,5.05
2019-04-20T12:54:00.594Z,3.80
2019-04-20T12:56:29.083Z,4.20
2019-04-20T12:58:57.830Z,3.75
2019-04-20T13:01:26.297Z,3.33
2019-04-20T13:03:55.341Z,3.60
2019-04-20T13:06:24.115Z,3.77
2019-04-20T13:08:57.033Z,5.08
2019-04-20T13:11:44.161Z,4.58
2019-04-20T13:14:14.575Z,3.42
2019-04-20T13:16:44.061Z,5.25
2019-04-20T13:19:13.134Z,4.17
2019-04-20T13:21:42.790Z,5.17
2019-04-20T13:24:11.565Z,5.85
2019-04-20T13:26:40.686Z,4.33
2019-04-20T13:29:09.270Z,6.20
2019-04-20T13:31:37.937Z,7.25
2019-04-20T13:34:07.586Z,4.45
2019-04-20T13:36:36.263Z,3.77
2019-04-20T13:39:08.177Z,4.95
2019-04-20T13:41:37.961Z,4.72
2019-04-20T13:44:07.131Z,5.83
2019-04-20T13:46:36.890Z,4.83
2019-04-20T13:49:05.428Z,4.00
2019-04-20T13:51:34.980Z,7.03
2019-04-20T13:54:06.333Z,4.53
2019-04-20T13:56:35.281Z,6.10
2019-04-20T13:59:08.692Z,5.65
2019-04-20T14:01:48.776Z,4.45
2019-04-20T14:04:24.906Z,4.17
2019-04-20T14:06:55.338Z,3.90
2019-04-20T14:09:23.918Z,3.80
2019-04-20T14:11:53.645Z,4.40
2019-04-20T14:14:23.467Z,5.22
2019-04-20T14:16:52.918Z,4.40
2019-04-20T14:19:23.069Z,4.10
2019-04-20T14:21:52.317Z,4.92
2019-04-20T14:24:21.322Z,4.35
2019-04-20T14:26:50.776Z,3.80
2019-04-20T14:29:19.378Z,4.83
2019-04-20T14:31:48.062Z,4.12
2019-04-20T14:34:17.162Z,3.50
2019-04-20T14:36:46.775Z,3.87
2019-04-20T14:39:16.183Z,3.87
2019-04-20T14:41:44.659Z,3.98
2019-04-20T14:44:14.024Z,4.10
2019-04-20T14:46:42.892Z,4.20
2019-04-20T14:49:12.588Z,4.22
2019-04-20T14:51:41.674Z,4.03
2019-04-20T14:54:11.595Z,3.92
2019-04-20T14:56:41.351Z,3.75
2019-04-20T14:59:15.559Z,3.92
2019-04-20T15:01:46.032Z,5.40
2019-04-20T15:04:18.075Z,3.92
2019-04-20T15:06:44.707Z,3.53
2019-04-20T15:09:13.194Z,5.22
2019-04-20T15:11:44.290Z,3.77
2019-04-20T15:14:11.813Z,3.35
2019-04-20T15:16:40.497Z,3.75
2019-04-20T15:19:11.796Z,3.77
2019-04-20T15:21:42.183Z,3.37
2019-04-20T15:24:11.357Z,3.65
2019-04-20T15:26:40.456Z,3.42
2019-04-20T15:29:08.923Z,3.75
2019-04-20T15:31:38.386Z,3.40
2019-04-20T15:34:07.052Z,3.75
2019-04-20T15:36:36.119Z,3.67
2019-04-20T15:39:07.305Z,3.70
2019-04-20T15:41:36.393Z,3.10
2019-04-20T15:44:05.064Z,18.40
2019-04-20T15:46:34.843Z,8.73
2019-04-20T15:49:04.202Z,3.83
2019-04-20T15:51:34.147Z,3.37
2019-04-20T15:54:02.871Z,3.17
2019-04-20T15:56:31.354Z,4.30
2019-04-20T15:58:59.827Z,3.30
2019-04-20T16:01:30.349Z,2.87
2019-04-20T16:04:03.619Z,4.00
2019-04-20T16:06:32.842Z,3.20
2019-04-20T16:09:02.291Z,4.30
2019-04-20T16:11:31.058Z,3.55
2019-04-20T16:14:00.204Z,3.42
2019-04-20T16:16:30.000Z,4.03
2019-04-20T16:18:59.083Z,2.67
2019-04-20T16:21:31.233Z,2.70
2019-04-20T16:24:00.989Z,2.70
2019-04-20T16:26:35.733Z,3.52
2019-04-20T16:29:05.842Z,2.67
2019-04-20T16:31:34.698Z,3.37
2019-04-20T16:34:03.404Z,3.22
2019-04-20T16:36:32.429Z,4.03
2019-04-20T16:39:01.598Z,3.45
2019-04-20T16:41:30.675Z,2.52
2019-04-20T16:43:59.527Z,3.67
2019-04-20T16:46:29.940Z,3.85
2019-04-20T16:48:58.972Z,2.72
2019-04-20T16:51:27.524Z,2.72
2019-04-20T16:53:56.293Z,3.33
2019-04-20T16:56:24.797Z,2.98
2019-04-20T16:58:59.406Z,3.20
2019-04-20T17:01:23.631Z,3.02
2019-04-20T17:04:02.080Z,2.80
2019-04-20T17:06:24.383Z,3.70
2019-04-20T17:08:52.818Z,3.10
2019-04-20T17:11:21.667Z,2.87
2019-04-20T17:13:54.801Z,2.95
2019-04-20T17:16:21.845Z,3.12
2019-04-20T17:18:52.044Z,3.42
2019-04-20T17:21:25.006Z,2.95
2019-04-20T17:23:51.313Z,3.52
2019-04-20T17:26:23.010Z,2.67
2019-04-20T17:29:10.650Z,3.47
2019-04-20T17:31:40.920Z,3.25
2019-04-20T17:34:26.943Z,2.95
2019-04-20T17:36:40.611Z,3.03
2019-04-20T17:39:13.469Z,3.00
2019-04-20T17:41:59.499Z,3.37
2019-04-20T17:44:28.643Z,2.75
2019-04-20T17:46:51.145Z,4.37
2019-04-20T17:49:25.773Z,4.80
2019-04-20T17:52:12.206Z,3.27
2019-04-20T17:54:33.579Z,3.52
2019-04-20T17:57:02.444Z,3.05
2019-04-20T17:59:32.315Z,3.05
2019-04-20T18:02:16.827Z,3.15
2019-04-20T18:07:31.304Z,3.62
2019-04-20T18:09:56.489Z,4.12
2019-04-20T18:12:14.114Z,3.80
2019-04-20T18:14:50.418Z,4.20
2019-04-20T18:17:32.106Z,3.77
2019-04-20T18:19:56.901Z,3.25
2019-04-20T18:22:25.809Z,4.45
2019-04-20T18:25:13.458Z,4.03
2019-04-20T18:27:41.462Z,2.87
2019-04-20T18:30:10.713Z,4.93
2019-04-20T18:32:31.471Z,3.25
2019-04-20T18:35:05.360Z,3.77
2019-04-20T18:40:08.136Z,3.35
2019-04-20T18:42:38.431Z,6.22
2019-04-20T18:45:17.367Z,2.52
2019-04-20T18:47:50.864Z,3.00
2019-04-20T18:50:10.537Z,3.00
2019-04-20T18:52:33.630Z,3.05
2019-04-20T18:55:06.339Z,3.15
2019-04-20T18:57:33.198Z,3.02
2019-04-20T19:00:04.247Z,4.83
2019-04-20T19:02:38.031Z,3.50
2019-04-20T19:05:05.119Z,3.08
2019-04-20T19:07:41.404Z,2.85
2019-04-20T19:10:14.488Z,3.37
2019-04-20T19:12:44.984Z,8.40
2019-04-20T19:15:33.280Z,6.90
2019-04-20T19:18:00.850Z,3.52
2019-04-20T19:20:20.645Z,3.27
2019-04-20T19:22:50.638Z,3.35
2019-04-20T19:25:27.368Z,3.60
2019-04-20T19:27:53.912Z,3.05
2019-04-20T19:30:31.283Z,3.37
2019-04-20T19:33:08.946Z,3.03
2019-04-20T19:35:37.618Z,4.08
2019-04-20T19:38:05.454Z,2.75
2019-04-20T19:40:36.013Z,3.30
2019-04-20T19:43:02.387Z,3.75
2019-04-20T19:46:05.578Z,3.10
2019-04-20T19:48:09.512Z,5.03
2019-04-20T19:50:41.254Z,5.60
2019-04-20T19:53:17.004Z,3.30
2019-04-20T19:55:40.446Z,4.03
2019-04-20T19:58:07.221Z,4.15
2019-04-20T20:00:46.832Z,7.83
2019-04-20T20:03:15.387Z,4.33
2019-04-20T20:05:48.017Z,4.75
2019-04-20T20:08:19.795Z,4.90
2019-04-20T20:10:45.820Z,2.98
2019-04-20T20:13:14.936Z,3.25
2019-04-20T20:15:45.520Z,5.58
2019-04-20T20:18:30.385Z,3.35
2019-04-20T20:20:59.677Z,3.17
2019-04-20T20:23:14.338Z,3.02
2019-04-20T20:25:47.430Z,3.70
2019-04-20T20:28:24.482Z,3.58
2019-04-20T20:30:56.810Z,4.33
2019-04-20T20:33:27.802Z,5.25
2019-04-20T20:35:53.555Z,2.90
2019-04-20T20:38:24.443Z,4.55
2019-04-20T20:40:54.852Z,3.33
2019-04-20T20:43:22.777Z,4.40
2019-04-20T20:46:01.254Z,4.42
2019-04-20T20:48:30.034Z,3.92
2019-04-20T20:51:07.716Z,4.28
2019-04-20T20:53:21.847Z,5.35
2019-04-20T20:55:48.715Z,4.10
2019-04-20T20:58:25.500Z,5.03
2019-04-20T21:00:57.601Z,4.67
2019-04-20T21:03:27.099Z,4.78
2019-04-20T21:05:47.377Z,4.62
2019-04-20T21:08:17.469Z,4.85
2019-04-20T21:13:47.421Z,5.58
2019-04-20T21:16:20.111Z,6.37
2019-04-20T21:19:00.794Z,4.67
2019-04-20T21:21:27.722Z,5.70
2019-04-20T21:23:53.201Z,7.08
2019-04-20T21:26:21.796Z,6.80
2019-04-20T21:28:45.768Z,11.10
2019-04-20T21:31:21.993Z,9.50
2019-04-20T21:33:44.895Z,6.33
2019-04-20T21:36:19.157Z,6.33
2019-04-20T21:38:45.074Z,7.37
2019-04-20T21:41:16.877Z,6.30
2019-04-20T21:43:46.101Z,6.37
2019-04-20T21:46:14.633Z,5.67
2019-04-20T21:48:55.940Z,6.87
2019-04-20T21:51:25.745Z,7.03
2019-04-20T21:53:44.312Z,6.33
2019-04-20T21:56:13.015Z,6.27
2019-04-20T21:58:48.290Z,7.50
2019-04-20T22:01:22.175Z,6.50
2019-04-20T22:03:44.791Z,9.30
2019-04-20T22:06:14.083Z,6.73
2019-04-20T22:08:46.815Z,6.25
2019-04-20T22:11:13.620Z,6.03
2019-04-20T22:13:45.504Z,8.85
2019-04-20T22:16:14.546Z,7.27
2019-04-20T22:18:53.014Z,6.95
2019-04-20T22:21:21.413Z,6.80
2019-04-20T22:24:00.371Z,7.78
2019-04-20T22:26:25.268Z,7.13
2019-04-20T22:28:44.592Z,6.53
2019-04-20T22:31:14.077Z,5.90
2019-04-20T22:33:44.954Z,6.37
2019-04-20T22:36:14.636Z,7.00
2019-04-20T22:39:03.301Z,7.05
2019-04-20T22:41:32.329Z,6.67
2019-04-20T22:44:08.617Z,6.85
2019-04-20T22:46:35.102Z,6.77
2019-04-20T22:49:20.494Z,6.97
2019-04-20T22:51:47.508Z,6.72
2019-04-20T22:54:17.288Z,7.22
2019-04-20T22:56:48.374Z,6.87
2019-04-20T22:59:12.580Z,6.50
2019-04-20T23:01:39.390Z,8.18
2019-04-20T23:04:04.327Z,6.97
2019-04-20T23:06:37.345Z,7.60
2019-04-20T23:09:07.446Z,7.17
2019-04-20T23:11:37.625Z,6.92
2019-04-20T23:14:06.898Z,7.50
2019-04-20T23:16:43.174Z,7.50
2019-04-20T23:19:05.669Z,8.53
2019-04-20T23:21:34.161Z,7.97
2019-04-20T23:24:06.245Z,8.78
2019-04-20T23:26:36.699Z,8.38
2019-04-20T23:29:02.938Z,9.10
2019-04-20T23:31:32.279Z,10.68
2019-04-20T23:34:09.177Z,8.78
2019-04-20T23:36:38.218Z,8.33
2019-04-20T23:39:03.127Z,9.28
2019-04-20T23:41:31.547Z,10.38
2019-04-20T23:44:06.196Z,10.55
2019-04-20T23:49:24.077Z,7.35
2019-04-20T23:52:09.831Z,9.58
2019-04-20T23:54:25.193Z,7.47
2019-04-20T23:56:49.960Z,7.95
2019-04-20T23:59:24.633Z,8.23
